sensor_id;sensor_type;location;lat;lon;timestamp;temperature;humidity
33007;DHT22;19361;51.598;7.650;2023-08-24T00:05:13;22.30;59.60
33007;DHT22;19361;51.598;7.650;2023-08-24T00:10:37;22.30;59.70
33007;DHT22;19361;51.598;7.650;2023-08-24T00:15:58;22.30;60.30
33007;DHT22;19361;51.598;7.650;2023-08-24T00:21:20;22.20;59.70
33007;DHT22;19361;51.598;7.650;2023-08-24T00:26:43;22.20;60.00
33007;DHT22;19361;51.598;7.650;2023-08-24T00:32:04;22.10;60.00
33007;DHT22;19361;51.598;7.650;2023-08-24T00:37:25;22.10;60.30
33007;DHT22;19361;51.598;7.650;2023-08-24T00:42:46;22.10;60.40
33007;DHT22;19361;51.598;7.650;2023-08-24T00:48:07;22.00;60.40
33007;DHT22;19361;51.598;7.650;2023-08-24T00:53:30;21.90;60.50
33007;DHT22;19361;51.598;7.650;2023-08-24T00:58:52;21.90;60.70
33007;DHT22;19361;51.598;7.650;2023-08-24T01:04:14;21.80;60.90
33007;DHT22;19361;51.598;7.650;2023-08-24T01:09:36;21.80;60.90
33007;DHT22;19361;51.598;7.650;2023-08-24T01:20:47;21.70;61.80
33007;DHT22;19361;51.598;7.650;2023-08-24T01:31:35;21.60;61.60
33007;DHT22;19361;51.598;7.650;2023-08-24T01:36:56;21.60;61.40
33007;DHT22;19361;51.598;7.650;2023-08-24T01:42:20;21.50;61.40
33007;DHT22;19361;51.598;7.650;2023-08-24T01:47:43;21.50;61.80
33007;DHT22;19361;51.598;7.650;2023-08-24T01:53:04;21.50;61.60
33007;DHT22;19361;51.598;7.650;2023-08-24T01:58:25;21.40;61.60
33007;DHT22;19361;51.598;7.650;2023-08-24T02:03:46;21.40;61.70
33007;DHT22;19361;51.598;7.650;2023-08-24T02:09:07;21.30;61.80
33007;DHT22;19361;51.598;7.650;2023-08-24T02:14:29;21.30;62.00
33007;DHT22;19361;51.598;7.650;2023-08-24T02:19:50;21.30;62.10
33007;DHT22;19361;51.598;7.650;2023-08-24T02:25:12;21.20;62.10
33007;DHT22;19361;51.598;7.650;2023-08-24T02:30:33;21.20;62.20
33007;DHT22;19361;51.598;7.650;2023-08-24T02:35:58;21.10;62.20
33007;DHT22;19361;51.598;7.650;2023-08-24T02:41:19;21.10;62.40
33007;DHT22;19361;51.598;7.650;2023-08-24T02:46:40;21.10;62.40
33007;DHT22;19361;51.598;7.650;2023-08-24T02:52:01;21.10;62.60
33007;DHT22;19361;51.598;7.650;2023-08-24T02:57:22;21.00;62.60
33007;DHT22;19361;51.598;7.650;2023-08-24T03:02:43;21.00;62.60
33007;DHT22;19361;51.598;7.650;2023-08-24T03:08:04;20.90;62.60
33007;DHT22;19361;51.598;7.650;2023-08-24T03:13:26;20.90;62.70
33007;DHT22;19361;51.598;7.650;2023-08-24T03:18:48;20.90;63.00
33007;DHT22;19361;51.598;7.650;2023-08-24T03:24:09;20.80;63.10
33007;DHT22;19361;51.598;7.650;2023-08-24T03:29:30;20.80;63.20
33007;DHT22;19361;51.598;7.650;2023-08-24T03:34:51;20.80;63.30
33007;DHT22;19361;51.598;7.650;2023-08-24T03:40:14;20.80;63.40
33007;DHT22;19361;51.598;7.650;2023-08-24T03:45:35;20.90;63.50
33007;DHT22;19361;51.598;7.650;2023-08-24T03:50:57;20.90;63.60
33007;DHT22;19361;51.598;7.650;2023-08-24T03:56:18;20.90;63.60
33007;DHT22;19361;51.598;7.650;2023-08-24T04:01:39;20.90;63.60
33007;DHT22;19361;51.598;7.650;2023-08-24T04:07:00;20.90;63.70
33007;DHT22;19361;51.598;7.650;2023-08-24T04:12:23;20.90;63.80
33007;DHT22;19361;51.598;7.650;2023-08-24T04:17:44;20.90;63.90
33007;DHT22;19361;51.598;7.650;2023-08-24T04:23:05;20.90;64.00
33007;DHT22;19361;51.598;7.650;2023-08-24T04:28:26;21.00;64.30
33007;DHT22;19361;51.598;7.650;2023-08-24T04:33:47;20.90;64.30
33007;DHT22;19361;51.598;7.650;2023-08-24T04:39:08;21.00;64.40
33007;DHT22;19361;51.598;7.650;2023-08-24T04:44:30;21.00;64.30
33007;DHT22;19361;51.598;7.650;2023-08-24T04:49:51;21.10;64.50
33007;DHT22;19361;51.598;7.650;2023-08-24T04:55:12;21.10;64.50
33007;DHT22;19361;51.598;7.650;2023-08-24T05:00:33;21.10;64.70
33007;DHT22;19361;51.598;7.650;2023-08-24T05:05:55;21.10;65.10
33007;DHT22;19361;51.598;7.650;2023-08-24T05:11:18;21.20;65.20
33007;DHT22;19361;51.598;7.650;2023-08-24T05:16:40;21.20;65.30
33007;DHT22;19361;51.598;7.650;2023-08-24T05:22:01;21.20;65.40
33007;DHT22;19361;51.598;7.650;2023-08-24T05:27:23;21.20;65.70
33007;DHT22;19361;51.598;7.650;2023-08-24T05:32:44;21.30;65.50
33007;DHT22;19361;51.598;7.650;2023-08-24T05:38:05;21.30;65.70
33007;DHT22;19361;51.598;7.650;2023-08-24T05:43:26;21.20;65.80
33007;DHT22;19361;51.598;7.650;2023-08-24T05:48:47;21.20;66.10
33007;DHT22;19361;51.598;7.650;2023-08-24T05:54:08;21.10;66.00
33007;DHT22;19361;51.598;7.650;2023-08-24T05:59:30;21.20;65.90
33007;DHT22;19361;51.598;7.650;2023-08-24T06:04:52;21.10;65.80
33007;DHT22;19361;51.598;7.650;2023-08-24T06:10:13;21.20;65.40
33007;DHT22;19361;51.598;7.650;2023-08-24T06:15:34;21.30;65.60
33007;DHT22;19361;51.598;7.650;2023-08-24T06:20:55;21.30;65.60
33007;DHT22;19361;51.598;7.650;2023-08-24T06:26:17;21.40;65.50
33007;DHT22;19361;51.598;7.650;2023-08-24T06:31:38;21.50;65.20
33007;DHT22;19361;51.598;7.650;2023-08-24T06:37:01;21.60;66.00
33007;DHT22;19361;51.598;7.650;2023-08-24T06:42:22;21.60;65.50
33007;DHT22;19361;51.598;7.650;2023-08-24T06:47:44;21.70;65.20
33007;DHT22;19361;51.598;7.650;2023-08-24T06:53:05;21.80;65.30
33007;DHT22;19361;51.598;7.650;2023-08-24T06:58:26;21.90;65.60
33007;DHT22;19361;51.598;7.650;2023-08-24T07:03:47;21.90;66.00
33007;DHT22;19361;51.598;7.650;2023-08-24T07:09:08;22.00;66.40
33007;DHT22;19361;51.598;7.650;2023-08-24T07:14:30;22.10;66.50
33007;DHT22;19361;51.598;7.650;2023-08-24T07:19:51;22.30;66.60
33007;DHT22;19361;51.598;7.650;2023-08-24T07:25:12;22.40;66.50
33007;DHT22;19361;51.598;7.650;2023-08-24T07:30:33;22.60;66.40
33007;DHT22;19361;51.598;7.650;2023-08-24T07:35:54;22.80;65.90
33007;DHT22;19361;51.598;7.650;2023-08-24T07:41:15;23.00;65.60
33007;DHT22;19361;51.598;7.650;2023-08-24T07:46:39;23.30;65.20
33007;DHT22;19361;51.598;7.650;2023-08-24T07:52:00;23.60;64.70
33007;DHT22;19361;51.598;7.650;2023-08-24T07:57:21;23.90;64.10
33007;DHT22;19361;51.598;7.650;2023-08-24T08:02:44;24.10;62.90
33007;DHT22;19361;51.598;7.650;2023-08-24T08:08:05;24.30;61.70
33007;DHT22;19361;51.598;7.650;2023-08-24T08:13:27;24.60;61.90
33007;DHT22;19361;51.598;7.650;2023-08-24T08:18:49;24.80;61.10
33007;DHT22;19361;51.598;7.650;2023-08-24T08:24:10;25.00;60.80
33007;DHT22;19361;51.598;7.650;2023-08-24T08:29:31;25.20;60.60
33007;DHT22;19361;51.598;7.650;2023-08-24T08:34:54;25.40;60.10
33007;DHT22;19361;51.598;7.650;2023-08-24T08:40:17;25.50;60.00
33007;DHT22;19361;51.598;7.650;2023-08-24T08:45:38;25.80;59.30
33007;DHT22;19361;51.598;7.650;2023-08-24T08:51:00;26.00;59.10
33007;DHT22;19361;51.598;7.650;2023-08-24T08:56:23;26.20;58.00
33007;DHT22;19361;51.598;7.650;2023-08-24T09:01:45;26.40;57.70
33007;DHT22;19361;51.598;7.650;2023-08-24T09:07:08;26.50;57.00
33007;DHT22;19361;51.598;7.650;2023-08-24T09:12:32;26.70;56.70
33007;DHT22;19361;51.598;7.650;2023-08-24T09:17:54;26.90;56.50
33007;DHT22;19361;51.598;7.650;2023-08-24T09:23:19;27.00;55.90
33007;DHT22;19361;51.598;7.650;2023-08-24T09:28:44;27.20;56.40
33007;DHT22;19361;51.598;7.650;2023-08-24T09:34:06;27.50;55.40
33007;DHT22;19361;51.598;7.650;2023-08-24T09:39:27;27.70;55.50
33007;DHT22;19361;51.598;7.650;2023-08-24T09:44:48;27.90;55.00
33007;DHT22;19361;51.598;7.650;2023-08-24T09:50:09;28.10;54.80
33007;DHT22;19361;51.598;7.650;2023-08-24T09:55:32;28.30;54.40
33007;DHT22;19361;51.598;7.650;2023-08-24T10:00:56;28.50;54.10
33007;DHT22;19361;51.598;7.650;2023-08-24T10:06:19;28.70;53.40
33007;DHT22;19361;51.598;7.650;2023-08-24T10:11:48;28.80;52.10
33007;DHT22;19361;51.598;7.650;2023-08-24T10:17:11;29.00;52.10
33007;DHT22;19361;51.598;7.650;2023-08-24T10:22:35;29.00;51.60
33007;DHT22;19361;51.598;7.650;2023-08-24T10:27:58;29.10;52.20
33007;DHT22;19361;51.598;7.650;2023-08-24T10:33:21;29.20;52.00
33007;DHT22;19361;51.598;7.650;2023-08-24T10:38:43;29.40;51.40
33007;DHT22;19361;51.598;7.650;2023-08-24T10:44:05;29.50;50.50
33007;DHT22;19361;51.598;7.650;2023-08-24T10:49:32;29.70;50.90
33007;DHT22;19361;51.598;7.650;2023-08-24T10:54:54;29.80;49.50
33007;DHT22;19361;51.598;7.650;2023-08-24T11:00:15;29.80;49.90
33007;DHT22;19361;51.598;7.650;2023-08-24T11:05:43;29.90;49.60
33007;DHT22;19361;51.598;7.650;2023-08-24T11:11:21;30.10;49.80
33007;DHT22;19361;51.598;7.650;2023-08-24T11:16:44;30.20;49.50
33007;DHT22;19361;51.598;7.650;2023-08-24T11:22:06;30.20;48.70
33007;DHT22;19361;51.598;7.650;2023-08-24T11:27:28;30.30;47.80
33007;DHT22;19361;51.598;7.650;2023-08-24T11:32:53;30.40;48.40
33007;DHT22;19361;51.598;7.650;2023-08-24T11:38:14;30.50;48.40
33007;DHT22;19361;51.598;7.650;2023-08-24T11:43:35;30.60;49.00
33007;DHT22;19361;51.598;7.650;2023-08-24T11:48:57;30.70;48.70
33007;DHT22;19361;51.598;7.650;2023-08-24T11:54:19;30.80;48.30
33007;DHT22;19361;51.598;7.650;2023-08-24T11:59:42;30.90;48.30
33007;DHT22;19361;51.598;7.650;2023-08-24T12:05:06;31.00;47.30
33007;DHT22;19361;51.598;7.650;2023-08-24T12:10:27;31.00;47.10
33007;DHT22;19361;51.598;7.650;2023-08-24T12:15:48;31.00;47.60
33007;DHT22;19361;51.598;7.650;2023-08-24T12:21:11;31.10;47.90
33007;DHT22;19361;51.598;7.650;2023-08-24T12:26:34;31.10;47.60
33007;DHT22;19361;51.598;7.650;2023-08-24T12:31:58;31.10;48.10
33007;DHT22;19361;51.598;7.650;2023-08-24T12:37:19;31.10;47.60
33007;DHT22;19361;51.598;7.650;2023-08-24T12:42:40;31.20;47.30
33007;DHT22;19361;51.598;7.650;2023-08-24T12:48:01;31.30;47.00
33007;DHT22;19361;51.598;7.650;2023-08-24T12:53:23;31.30;46.50
33007;DHT22;19361;51.598;7.650;2023-08-24T12:58:44;31.40;46.90
33007;DHT22;19361;51.598;7.650;2023-08-24T13:04:05;31.30;47.00
33007;DHT22;19361;51.598;7.650;2023-08-24T13:09:27;31.40;46.90
33007;DHT22;19361;51.598;7.650;2023-08-24T13:14:48;31.40;46.20
33007;DHT22;19361;51.598;7.650;2023-08-24T13:20:09;31.40;46.40
33007;DHT22;19361;51.598;7.650;2023-08-24T13:25:30;31.50;46.50
33007;DHT22;19361;51.598;7.650;2023-08-24T13:30:52;31.30;46.00
33007;DHT22;19361;51.598;7.650;2023-08-24T13:36:13;31.30;46.40
33007;DHT22;19361;51.598;7.650;2023-08-24T13:41:34;31.10;46.50
33007;DHT22;19361;51.598;7.650;2023-08-24T13:46:55;31.10;47.30
33007;DHT22;19361;51.598;7.650;2023-08-24T13:52:16;30.90;47.50
33007;DHT22;19361;51.598;7.650;2023-08-24T13:57:39;30.80;47.10
33007;DHT22;19361;51.598;7.650;2023-08-24T14:03:00;30.60;48.30
33007;DHT22;19361;51.598;7.650;2023-08-24T14:08:22;30.60;48.60
33007;DHT22;19361;51.598;7.650;2023-08-24T14:13:43;30.50;48.80
33007;DHT22;19361;51.598;7.650;2023-08-24T14:19:04;30.40;48.80
33007;DHT22;19361;51.598;7.650;2023-08-24T14:24:25;30.30;48.10
33007;DHT22;19361;51.598;7.650;2023-08-24T14:29:47;30.30;49.20
33007;DHT22;19361;51.598;7.650;2023-08-24T14:35:08;30.40;49.40
33007;DHT22;19361;51.598;7.650;2023-08-24T14:40:29;30.50;49.00
33007;DHT22;19361;51.598;7.650;2023-08-24T14:45:50;30.50;48.20
33007;DHT22;19361;51.598;7.650;2023-08-24T14:51:11;30.50;47.80
33007;DHT22;19361;51.598;7.650;2023-08-24T14:56:33;30.60;48.00
33007;DHT22;19361;51.598;7.650;2023-08-24T15:01:54;30.60;48.00
33007;DHT22;19361;51.598;7.650;2023-08-24T15:07:15;30.50;47.50
33007;DHT22;19361;51.598;7.650;2023-08-24T15:12:36;30.50;47.10
33007;DHT22;19361;51.598;7.650;2023-08-24T15:17:57;30.50;47.10
33007;DHT22;19361;51.598;7.650;2023-08-24T15:23:23;30.50;47.10
33007;DHT22;19361;51.598;7.650;2023-08-24T15:29:10;30.40;47.40
33007;DHT22;19361;51.598;7.650;2023-08-24T15:34:34;30.40;47.90
33007;DHT22;19361;51.598;7.650;2023-08-24T15:39:55;30.40;48.50
33007;DHT22;19361;51.598;7.650;2023-08-24T15:45:16;30.30;47.50
33007;DHT22;19361;51.598;7.650;2023-08-24T15:50:37;30.10;47.90
33007;DHT22;19361;51.598;7.650;2023-08-24T15:55:58;30.00;47.90
33007;DHT22;19361;51.598;7.650;2023-08-24T16:01:20;29.90;48.80
33007;DHT22;19361;51.598;7.650;2023-08-24T16:06:41;29.70;49.30
33007;DHT22;19361;51.598;7.650;2023-08-24T16:12:03;29.50;50.10
33007;DHT22;19361;51.598;7.650;2023-08-24T16:17:24;29.30;50.50
33007;DHT22;19361;51.598;7.650;2023-08-24T16:22:45;29.10;51.00
33007;DHT22;19361;51.598;7.650;2023-08-24T16:28:06;29.00;51.80
33007;DHT22;19361;51.598;7.650;2023-08-24T16:33:27;28.90;53.30
33007;DHT22;19361;51.598;7.650;2023-08-24T16:38:48;28.70;53.60
33007;DHT22;19361;51.598;7.650;2023-08-24T16:44:09;28.50;54.10
33007;DHT22;19361;51.598;7.650;2023-08-24T16:49:30;28.40;54.90
33007;DHT22;19361;51.598;7.650;2023-08-24T16:54:51;28.20;55.20
33007;DHT22;19361;51.598;7.650;2023-08-24T17:00:13;28.10;55.80
33007;DHT22;19361;51.598;7.650;2023-08-24T17:05:34;28.00;55.50
33007;DHT22;19361;51.598;7.650;2023-08-24T17:10:55;27.90;56.20
33007;DHT22;19361;51.598;7.650;2023-08-24T17:16:16;27.70;56.30
33007;DHT22;19361;51.598;7.650;2023-08-24T17:21:38;27.50;56.50
33007;DHT22;19361;51.598;7.650;2023-08-24T17:26:59;27.50;56.60
33007;DHT22;19361;51.598;7.650;2023-08-24T17:32:20;27.40;56.70
33007;DHT22;19361;51.598;7.650;2023-08-24T17:37:46;27.30;57.10
33007;DHT22;19361;51.598;7.650;2023-08-24T17:43:07;27.20;57.00
33007;DHT22;19361;51.598;7.650;2023-08-24T17:48:28;27.10;57.20
33007;DHT22;19361;51.598;7.650;2023-08-24T17:53:50;27.10;57.40
33007;DHT22;19361;51.598;7.650;2023-08-24T17:59:12;27.00;57.90
33007;DHT22;19361;51.598;7.650;2023-08-24T18:04:33;26.90;57.50
33007;DHT22;19361;51.598;7.650;2023-08-24T18:09:54;26.80;57.40
33007;DHT22;19361;51.598;7.650;2023-08-24T18:15:15;26.80;57.30
33007;DHT22;19361;51.598;7.650;2023-08-24T18:20:36;26.70;57.30
33007;DHT22;19361;51.598;7.650;2023-08-24T18:25:58;26.60;57.50
33007;DHT22;19361;51.598;7.650;2023-08-24T18:31:19;26.60;57.50
33007;DHT22;19361;51.598;7.650;2023-08-24T18:36:41;26.60;57.50
33007;DHT22;19361;51.598;7.650;2023-08-24T18:42:02;26.50;57.60
33007;DHT22;19361;51.598;7.650;2023-08-24T18:47:24;26.50;57.90
33007;DHT22;19361;51.598;7.650;2023-08-24T18:52:45;26.40;57.80
33007;DHT22;19361;51.598;7.650;2023-08-24T18:58:06;26.30;58.00
33007;DHT22;19361;51.598;7.650;2023-08-24T19:03:29;26.20;58.20
33007;DHT22;19361;51.598;7.650;2023-08-24T19:08:50;26.20;58.70
33007;DHT22;19361;51.598;7.650;2023-08-24T19:14:11;26.10;58.80
33007;DHT22;19361;51.598;7.650;2023-08-24T19:19:32;26.00;58.80
33007;DHT22;19361;51.598;7.650;2023-08-24T19:24:53;25.90;59.00
33007;DHT22;19361;51.598;7.650;2023-08-24T19:30:14;25.90;59.70
33007;DHT22;19361;51.598;7.650;2023-08-24T19:35:35;25.90;59.50
33007;DHT22;19361;51.598;7.650;2023-08-24T19:41:00;25.80;59.60
33007;DHT22;19361;51.598;7.650;2023-08-24T19:46:22;25.70;59.90
33007;DHT22;19361;51.598;7.650;2023-08-24T19:51:43;25.70;59.90
33007;DHT22;19361;51.598;7.650;2023-08-24T19:57:05;25.60;59.90
33007;DHT22;19361;51.598;7.650;2023-08-24T20:02:28;25.50;59.80
33007;DHT22;19361;51.598;7.650;2023-08-24T20:07:49;25.40;60.10
33007;DHT22;19361;51.598;7.650;2023-08-24T20:13:10;25.40;60.40
33007;DHT22;19361;51.598;7.650;2023-08-24T20:18:32;25.30;60.50
33007;DHT22;19361;51.598;7.650;2023-08-24T20:23:53;25.10;60.70
33007;DHT22;19361;51.598;7.650;2023-08-24T20:29:14;25.00;60.80
33007;DHT22;19361;51.598;7.650;2023-08-24T20:34:35;24.90;61.10
33007;DHT22;19361;51.598;7.650;2023-08-24T20:39:57;24.80;61.40
33007;DHT22;19361;51.598;7.650;2023-08-24T20:45:18;24.80;61.50
33007;DHT22;19361;51.598;7.650;2023-08-24T20:50:39;24.70;61.60
33007;DHT22;19361;51.598;7.650;2023-08-24T20:56:01;24.60;61.90
33007;DHT22;19361;51.598;7.650;2023-08-24T21:01:22;24.50;62.00
33007;DHT22;19361;51.598;7.650;2023-08-24T21:06:44;24.50;62.20
33007;DHT22;19361;51.598;7.650;2023-08-24T21:12:05;24.40;62.90
33007;DHT22;19361;51.598;7.650;2023-08-24T21:17:27;24.50;62.50
33007;DHT22;19361;51.598;7.650;2023-08-24T21:22:48;24.50;62.70
33007;DHT22;19361;51.598;7.650;2023-08-24T21:28:09;24.40;62.70
33007;DHT22;19361;51.598;7.650;2023-08-24T21:33:31;24.40;62.70
33007;DHT22;19361;51.598;7.650;2023-08-24T21:38:52;24.40;62.80
33007;DHT22;19361;51.598;7.650;2023-08-24T21:44:13;24.30;62.70
33007;DHT22;19361;51.598;7.650;2023-08-24T21:49:34;24.30;62.80
33007;DHT22;19361;51.598;7.650;2023-08-24T21:54:55;24.30;62.90
33007;DHT22;19361;51.598;7.650;2023-08-24T22:00:17;24.20;63.00
33007;DHT22;19361;51.598;7.650;2023-08-24T22:05:38;24.10;63.20
33007;DHT22;19361;51.598;7.650;2023-08-24T22:10:59;24.10;63.30
33007;DHT22;19361;51.598;7.650;2023-08-24T22:16:21;24.00;63.70
33007;DHT22;19361;51.598;7.650;2023-08-24T22:21:47;24.00;63.70
33007;DHT22;19361;51.598;7.650;2023-08-24T22:27:08;23.90;63.90
33007;DHT22;19361;51.598;7.650;2023-08-24T22:32:29;23.80;64.20
33007;DHT22;19361;51.598;7.650;2023-08-24T22:37:51;23.80;64.10
33007;DHT22;19361;51.598;7.650;2023-08-24T22:43:12;23.70;64.30
33007;DHT22;19361;51.598;7.650;2023-08-24T22:48:33;23.70;64.50
33007;DHT22;19361;51.598;7.650;2023-08-24T22:53:54;23.60;64.60
33007;DHT22;19361;51.598;7.650;2023-08-24T22:59:15;23.60;64.80
33007;DHT22;19361;51.598;7.650;2023-08-24T23:04:36;23.60;65.80
33007;DHT22;19361;51.598;7.650;2023-08-24T23:09:57;23.60;65.20
33007;DHT22;19361;51.598;7.650;2023-08-24T23:15:18;23.50;65.40
33007;DHT22;19361;51.598;7.650;2023-08-24T23:20:39;23.50;65.40
33007;DHT22;19361;51.598;7.650;2023-08-24T23:26:00;23.50;65.40
33007;DHT22;19361;51.598;7.650;2023-08-24T23:31:21;23.50;65.20
33007;DHT22;19361;51.598;7.650;2023-08-24T23:36:42;23.50;65.20
33007;DHT22;19361;51.598;7.650;2023-08-24T23:42:03;23.50;65.30
33007;DHT22;19361;51.598;7.650;2023-08-24T23:47:24;23.50;65.20
33007;DHT22;19361;51.598;7.650;2023-08-24T23:52:45;23.50;65.20
33007;DHT22;19361;51.598;7.650;2023-08-24T23:58:07;23.50;65.10
